sensor_id;sensor_type;location;lat;lon;timestamp;P1;durP1;ratioP1;P2;durP2;ratioP2
1799;SDS011;919;48.274;12.292;2024-03-08T00:01:13;14.67;;;9.80;;
1799;SDS011;919;48.274;12.292;2024-03-08T00:03:42;15.53;;;9.57;;
1799;SDS011;919;48.274;12.292;2024-03-08T00:06:09;15.00;;;10.50;;
1799;SDS011;919;48.274;12.292;2024-03-08T00:08:36;16.37;;;9.90;;
1799;SDS011;919;48.274;12.292;2024-03-08T00:11:03;15.27;;;10.87;;
1799;SDS011;919;48.274;12.292;2024-03-08T00:13:30;16.43;;;10.23;;
1799;SDS011;919;48.274;12.292;2024-03-08T00:15:56;18.80;;;9.47;;
1799;SDS011;919;48.274;12.292;2024-03-08T00:18:23;21.20;;;10.90;;
1799;SDS011;919;48.274;12.292;2024-03-08T00:20:51;14.67;;;9.20;;
1799;SDS011;919;48.274;12.292;2024-03-08T00:23:18;19.13;;;10.73;;
1799;SDS011;919;48.274;12.292;2024-03-08T00:25:45;18.10;;;11.37;;
1799;SDS011;919;48.274;12.292;2024-03-08T00:28:11;18.90;;;11.80;;
1799;SDS011;919;48.274;12.292;2024-03-08T00:30:40;15.10;;;10.60;;
1799;SDS011;919;48.274;12.292;2024-03-08T00:33:07;19.10;;;11.47;;
1799;SDS011;919;48.274;12.292;2024-03-08T00:35:34;19.10;;;11.00;;
1799;SDS011;919;48.274;12.292;2024-03-08T00:38:02;21.53;;;12.27;;
1799;SDS011;919;48.274;12.292;2024-03-08T00:40:29;18.70;;;9.97;;
1799;SDS011;919;48.274;12.292;2024-03-08T00:42:56;19.83;;;10.67;;
1799;SDS011;919;48.274;12.292;2024-03-08T00:45:23;21.17;;;12.10;;
1799;SDS011;919;48.274;12.292;2024-03-08T00:47:49;16.50;;;10.00;;
1799;SDS011;919;48.274;12.292;2024-03-08T00:50:16;25.47;;;11.57;;
1799;SDS011;919;48.274;12.292;2024-03-08T00:52:43;18.90;;;10.67;;
1799;SDS011;919;48.274;12.292;2024-03-08T00:55:11;16.13;;;10.30;;
1799;SDS011;919;48.274;12.292;2024-03-08T00:57:38;24.37;;;12.50;;
1799;SDS011;919;48.274;12.292;2024-03-08T01:00:05;19.90;;;10.93;;
1799;SDS011;919;48.274;12.292;2024-03-08T01:02:36;22.43;;;12.27;;
1799;SDS011;919;48.274;12.292;2024-03-08T01:05:04;19.30;;;11.40;;
1799;SDS011;919;48.274;12.292;2024-03-08T01:07:32;17.80;;;11.27;;
1799;SDS011;919;48.274;12.292;2024-03-08T01:09:59;17.23;;;10.97;;
1799;SDS011;919;48.274;12.292;2024-03-08T01:12:28;18.30;;;10.50;;
1799;SDS011;919;48.274;12.292;2024-03-08T01:14:55;22.17;;;11.83;;
1799;SDS011;919;48.274;12.292;2024-03-08T01:17:22;18.20;;;10.90;;
1799;SDS011;919;48.274;12.292;2024-03-08T01:19:49;16.87;;;10.17;;
1799;SDS011;919;48.274;12.292;2024-03-08T01:22:16;17.60;;;10.60;;
1799;SDS011;919;48.274;12.292;2024-03-08T01:24:43;21.93;;;13.23;;
1799;SDS011;919;48.274;12.292;2024-03-08T01:27:09;20.13;;;11.60;;
1799;SDS011;919;48.274;12.292;2024-03-08T01:29:38;19.97;;;12.33;;
1799;SDS011;919;48.274;12.292;2024-03-08T01:32:05;21.33;;;12.03;;
1799;SDS011;919;48.274;12.292;2024-03-08T01:34:32;18.03;;;10.90;;
1799;SDS011;919;48.274;12.292;2024-03-08T01:36:59;21.30;;;11.50;;
1799;SDS011;919;48.274;12.292;2024-03-08T01:39:25;19.20;;;10.93;;
1799;SDS011;919;48.274;12.292;2024-03-08T01:41:52;17.10;;;10.37;;
1799;SDS011;919;48.274;12.292;2024-03-08T01:44:20;19.87;;;11.37;;
1799;SDS011;919;48.274;12.292;2024-03-08T01:46:48;18.30;;;10.40;;
1799;SDS011;919;48.274;12.292;2024-03-08T01:49:17;22.70;;;11.80;;
1799;SDS011;919;48.274;12.292;2024-03-08T01:51:46;16.43;;;10.40;;
1799;SDS011;919;48.274;12.292;2024-03-08T01:54:14;19.50;;;9.73;;
1799;SDS011;919;48.274;12.292;2024-03-08T01:56:42;18.70;;;11.17;;
1799;SDS011;919;48.274;12.292;2024-03-08T01:59:09;19.33;;;10.43;;
1799;SDS011;919;48.274;12.292;2024-03-08T02:01:36;14.20;;;9.80;;
1799;SDS011;919;48.274;12.292;2024-03-08T02:04:04;16.23;;;11.13;;
1799;SDS011;919;48.274;12.292;2024-03-08T02:06:32;20.37;;;11.90;;
1799;SDS011;919;48.274;12.292;2024-03-08T02:08:59;14.47;;;10.17;;
1799;SDS011;919;48.274;12.292;2024-03-08T02:11:30;19.37;;;10.83;;
1799;SDS011;919;48.274;12.292;2024-03-08T02:13:57;16.60;;;10.37;;
1799;SDS011;919;48.274;12.292;2024-03-08T02:16:24;17.70;;;10.87;;
1799;SDS011;919;48.274;12.292;2024-03-08T02:18:51;14.43;;;9.60;;
1799;SDS011;919;48.274;12.292;2024-03-08T02:21:19;19.17;;;11.10;;
1799;SDS011;919;48.274;12.292;2024-03-08T02:23:47;20.13;;;11.40;;
1799;SDS011;919;48.274;12.292;2024-03-08T02:26:13;22.00;;;12.10;;
1799;SDS011;919;48.274;12.292;2024-03-08T02:28:40;20.00;;;11.07;;
1799;SDS011;919;48.274;12.292;2024-03-08T02:31:08;19.67;;;11.17;;
1799;SDS011;919;48.274;12.292;2024-03-08T02:33:35;19.77;;;11.93;;
1799;SDS011;919;48.274;12.292;2024-03-08T02:36:02;25.33;;;14.20;;
1799;SDS011;919;48.274;12.292;2024-03-08T02:38:32;26.33;;;13.70;;
1799;SDS011;919;48.274;12.292;2024-03-08T02:40:59;27.77;;;14.50;;
1799;SDS011;919;48.274;12.292;2024-03-08T02:43:26;27.50;;;15.00;;
1799;SDS011;919;48.274;12.292;2024-03-08T02:45:53;25.40;;;15.13;;
1799;SDS011;919;48.274;12.292;2024-03-08T02:48:19;31.23;;;14.67;;
1799;SDS011;919;48.274;12.292;2024-03-08T02:50:47;34.40;;;16.40;;
1799;SDS011;919;48.274;12.292;2024-03-08T02:53:16;35.27;;;16.80;;
1799;SDS011;919;48.274;12.292;2024-03-08T02:55:45;25.07;;;16.37;;
1799;SDS011;919;48.274;12.292;2024-03-08T02:58:12;29.93;;;16.40;;
1799;SDS011;919;48.274;12.292;2024-03-08T03:00:39;29.47;;;17.50;;
1799;SDS011;919;48.274;12.292;2024-03-08T03:03:06;35.87;;;17.13;;
1799;SDS011;919;48.274;12.292;2024-03-08T03:05:33;33.07;;;17.03;;
1799;SDS011;919;48.274;12.292;2024-03-08T03:08:00;28.07;;;15.60;;
1799;SDS011;919;48.274;12.292;2024-03-08T03:10:29;30.23;;;16.93;;
1799;SDS011;919;48.274;12.292;2024-03-08T03:12:57;28.63;;;16.20;;
1799;SDS011;919;48.274;12.292;2024-03-08T03:15:24;31.23;;;17.10;;
1799;SDS011;919;48.274;12.292;2024-03-08T03:17:50;27.47;;;15.70;;
1799;SDS011;919;48.274;12.292;2024-03-08T03:20:16;32.13;;;17.00;;
1799;SDS011;919;48.274;12.292;2024-03-08T03:22:48;34.50;;;16.37;;
1799;SDS011;919;48.274;12.292;2024-03-08T03:25:17;32.90;;;18.30;;
1799;SDS011;919;48.274;12.292;2024-03-08T03:27:50;36.97;;;19.07;;
1799;SDS011;919;48.274;12.292;2024-03-08T03:30:19;31.83;;;17.60;;
1799;SDS011;919;48.274;12.292;2024-03-08T03:32:46;40.30;;;17.80;;
1799;SDS011;919;48.274;12.292;2024-03-08T03:35:14;38.60;;;19.07;;
1799;SDS011;919;48.274;12.292;2024-03-08T03:37:41;43.53;;;19.77;;
1799;SDS011;919;48.274;12.292;2024-03-08T03:40:10;44.20;;;18.40;;
1799;SDS011;919;48.274;12.292;2024-03-08T03:42:39;37.13;;;19.90;;
1799;SDS011;919;48.274;12.292;2024-03-08T03:45:06;36.50;;;19.03;;
1799;SDS011;919;48.274;12.292;2024-03-08T03:47:35;42.77;;;19.67;;
1799;SDS011;919;48.274;12.292;2024-03-08T03:50:03;43.40;;;18.80;;
1799;SDS011;919;48.274;12.292;2024-03-08T03:52:31;42.93;;;19.87;;
1799;SDS011;919;48.274;12.292;2024-03-08T03:54:58;50.33;;;20.53;;
1799;SDS011;919;48.274;12.292;2024-03-08T03:57:25;38.60;;;18.83;;
1799;SDS011;919;48.274;12.292;2024-03-08T03:59:52;38.50;;;18.90;;
1799;SDS011;919;48.274;12.292;2024-03-08T04:02:18;43.47;;;21.20;;
1799;SDS011;919;48.274;12.292;2024-03-08T04:04:47;38.13;;;20.47;;
1799;SDS011;919;48.274;12.292;2024-03-08T04:07:14;37.77;;;20.73;;
1799;SDS011;919;48.274;12.292;2024-03-08T04:09:41;46.20;;;20.33;;
1799;SDS011;919;48.274;12.292;2024-03-08T04:12:08;47.27;;;21.07;;
1799;SDS011;919;48.274;12.292;2024-03-08T04:14:35;40.10;;;20.90;;
1799;SDS011;919;48.274;12.292;2024-03-08T04:17:02;39.57;;;19.93;;
1799;SDS011;919;48.274;12.292;2024-03-08T04:19:31;38.33;;;19.83;;
1799;SDS011;919;48.274;12.292;2024-03-08T04:22:00;44.13;;;20.73;;
1799;SDS011;919;48.274;12.292;2024-03-08T04:24:27;44.43;;;19.83;;
1799;SDS011;919;48.274;12.292;2024-03-08T04:26:55;48.90;;;21.20;;
1799;SDS011;919;48.274;12.292;2024-03-08T04:29:22;44.73;;;21.13;;
1799;SDS011;919;48.274;12.292;2024-03-08T04:31:49;41.93;;;19.90;;
1799;SDS011;919;48.274;12.292;2024-03-08T04:34:19;47.77;;;21.03;;
1799;SDS011;919;48.274;12.292;2024-03-08T04:36:46;39.50;;;19.53;;
1799;SDS011;919;48.274;12.292;2024-03-08T04:39:14;46.77;;;20.87;;
1799;SDS011;919;48.274;12.292;2024-03-08T04:41:43;49.07;;;21.07;;
1799;SDS011;919;48.274;12.292;2024-03-08T04:44:10;48.53;;;22.37;;
1799;SDS011;919;48.274;12.292;2024-03-08T04:46:37;46.10;;;21.67;;
1799;SDS011;919;48.274;12.292;2024-03-08T04:49:04;50.13;;;21.57;;
1799;SDS011;919;48.274;12.292;2024-03-08T04:51:32;38.73;;;18.80;;
1799;SDS011;919;48.274;12.292;2024-03-08T04:53:59;44.17;;;19.63;;
1799;SDS011;919;48.274;12.292;2024-03-08T04:56:27;42.03;;;20.00;;
1799;SDS011;919;48.274;12.292;2024-03-08T04:58:54;48.33;;;21.27;;
1799;SDS011;919;48.274;12.292;2024-03-08T05:01:20;46.97;;;20.30;;
1799;SDS011;919;48.274;12.292;2024-03-08T05:03:47;38.43;;;20.60;;
1799;SDS011;919;48.274;12.292;2024-03-08T05:06:15;47.17;;;20.50;;
1799;SDS011;919;48.274;12.292;2024-03-08T05:08:41;42.37;;;20.23;;
1799;SDS011;919;48.274;12.292;2024-03-08T05:11:08;47.53;;;21.63;;
1799;SDS011;919;48.274;12.292;2024-03-08T05:13:37;46.20;;;21.87;;
1799;SDS011;919;48.274;12.292;2024-03-08T05:16:04;44.50;;;20.27;;
1799;SDS011;919;48.274;12.292;2024-03-08T05:18:32;36.33;;;20.20;;
1799;SDS011;919;48.274;12.292;2024-03-08T05:20:59;37.90;;;19.73;;
1799;SDS011;919;48.274;12.292;2024-03-08T05:23:28;41.00;;;21.27;;
1799;SDS011;919;48.274;12.292;2024-03-08T05:25:55;39.70;;;19.57;;
1799;SDS011;919;48.274;12.292;2024-03-08T05:28:22;53.73;;;22.43;;
1799;SDS011;919;48.274;12.292;2024-03-08T05:30:50;43.97;;;20.33;;
1799;SDS011;919;48.274;12.292;2024-03-08T05:33:17;42.13;;;21.90;;
1799;SDS011;919;48.274;12.292;2024-03-08T05:35:44;38.13;;;20.57;;
1799;SDS011;919;48.274;12.292;2024-03-08T05:38:11;48.17;;;20.67;;
1799;SDS011;919;48.274;12.292;2024-03-08T05:40:38;42.20;;;20.07;;
1799;SDS011;919;48.274;12.292;2024-03-08T05:43:05;42.23;;;21.20;;
1799;SDS011;919;48.274;12.292;2024-03-08T05:45:31;43.47;;;21.13;;
1799;SDS011;919;48.274;12.292;2024-03-08T05:48:00;41.77;;;19.60;;
1799;SDS011;919;48.274;12.292;2024-03-08T05:50:27;39.57;;;22.23;;
1799;SDS011;919;48.274;12.292;2024-03-08T05:52:54;46.00;;;22.50;;
1799;SDS011;919;48.274;12.292;2024-03-08T05:55:21;40.53;;;22.60;;
1799;SDS011;919;48.274;12.292;2024-03-08T05:57:49;43.87;;;22.07;;
1799;SDS011;919;48.274;12.292;2024-03-08T06:00:19;36.00;;;21.10;;
1799;SDS011;919;48.274;12.292;2024-03-08T06:02:47;46.80;;;20.03;;
1799;SDS011;919;48.274;12.292;2024-03-08T06:05:15;38.67;;;20.07;;
1799;SDS011;919;48.274;12.292;2024-03-08T06:07:42;46.30;;;22.00;;
1799;SDS011;919;48.274;12.292;2024-03-08T06:10:09;41.87;;;20.70;;
1799;SDS011;919;48.274;12.292;2024-03-08T06:12:37;36.60;;;19.73;;
1799;SDS011;919;48.274;12.292;2024-03-08T06:15:05;44.70;;;21.90;;
1799;SDS011;919;48.274;12.292;2024-03-08T06:17:33;41.17;;;20.83;;
1799;SDS011;919;48.274;12.292;2024-03-08T06:20:00;44.23;;;21.87;;
1799;SDS011;919;48.274;12.292;2024-03-08T06:22:30;39.47;;;21.40;;
1799;SDS011;919;48.274;12.292;2024-03-08T06:24:56;43.10;;;22.07;;
1799;SDS011;919;48.274;12.292;2024-03-08T06:27:23;45.23;;;21.80;;
1799;SDS011;919;48.274;12.292;2024-03-08T06:29:50;46.53;;;23.23;;
1799;SDS011;919;48.274;12.292;2024-03-08T06:32:17;42.90;;;21.13;;
1799;SDS011;919;48.274;12.292;2024-03-08T06:34:44;41.30;;;22.27;;
1799;SDS011;919;48.274;12.292;2024-03-08T06:37:10;45.43;;;23.73;;
1799;SDS011;919;48.274;12.292;2024-03-08T06:39:38;41.70;;;20.70;;
1799;SDS011;919;48.274;12.292;2024-03-08T06:42:05;40.13;;;21.27;;
1799;SDS011;919;48.274;12.292;2024-03-08T06:44:34;41.57;;;21.77;;
1799;SDS011;919;48.274;12.292;2024-03-08T06:47:01;41.10;;;21.13;;
1799;SDS011;919;48.274;12.292;2024-03-08T06:49:28;46.37;;;24.37;;
1799;SDS011;919;48.274;12.292;2024-03-08T06:51:54;39.17;;;20.70;;
1799;SDS011;919;48.274;12.292;2024-03-08T06:54:22;42.50;;;21.07;;
1799;SDS011;919;48.274;12.292;2024-03-08T06:56:51;43.20;;;21.13;;
1799;SDS011;919;48.274;12.292;2024-03-08T06:59:18;40.73;;;22.30;;
1799;SDS011;919;48.274;12.292;2024-03-08T07:01:44;47.53;;;22.37;;
1799;SDS011;919;48.274;12.292;2024-03-08T07:04:11;42.40;;;21.17;;
1799;SDS011;919;48.274;12.292;2024-03-08T07:06:38;41.87;;;21.40;;
1799;SDS011;919;48.274;12.292;2024-03-08T07:09:06;39.63;;;20.77;;
1799;SDS011;919;48.274;12.292;2024-03-08T07:11:32;41.10;;;21.40;;
1799;SDS011;919;48.274;12.292;2024-03-08T07:14:01;46.03;;;24.10;;
1799;SDS011;919;48.274;12.292;2024-03-08T07:16:30;37.93;;;22.10;;
1799;SDS011;919;48.274;12.292;2024-03-08T07:18:57;44.83;;;21.97;;
1799;SDS011;919;48.274;12.292;2024-03-08T07:21:24;46.90;;;20.60;;
1799;SDS011;919;48.274;12.292;2024-03-08T07:23:51;38.33;;;20.37;;
1799;SDS011;919;48.274;12.292;2024-03-08T07:26:38;44.20;;;21.40;;
1799;SDS011;919;48.274;12.292;2024-03-08T07:29:06;42.33;;;19.87;;
1799;SDS011;919;48.274;12.292;2024-03-08T07:31:34;41.30;;;21.20;;
1799;SDS011;919;48.274;12.292;2024-03-08T07:34:15;37.27;;;20.00;;
1799;SDS011;919;48.274;12.292;2024-03-08T07:36:42;44.63;;;21.60;;
1799;SDS011;919;48.274;12.292;2024-03-08T07:39:09;46.27;;;23.00;;
1799;SDS011;919;48.274;12.292;2024-03-08T07:41:36;39.97;;;20.60;;
1799;SDS011;919;48.274;12.292;2024-03-08T07:44:06;38.67;;;20.30;;
1799;SDS011;919;48.274;12.292;2024-03-08T07:46:34;36.93;;;19.43;;
1799;SDS011;919;48.274;12.292;2024-03-08T07:49:01;40.00;;;18.97;;
1799;SDS011;919;48.274;12.292;2024-03-08T07:51:28;34.93;;;19.07;;
1799;SDS011;919;48.274;12.292;2024-03-08T07:53:55;41.63;;;20.87;;
1799;SDS011;919;48.274;12.292;2024-03-08T07:56:22;32.50;;;19.57;;
1799;SDS011;919;48.274;12.292;2024-03-08T07:58:50;37.63;;;20.43;;
1799;SDS011;919;48.274;12.292;2024-03-08T08:01:19;41.83;;;20.40;;
1799;SDS011;919;48.274;12.292;2024-03-08T08:03:47;38.57;;;19.77;;
1799;SDS011;919;48.274;12.292;2024-03-08T08:06:14;41.33;;;20.47;;
1799;SDS011;919;48.274;12.292;2024-03-08T08:08:41;35.67;;;18.67;;
1799;SDS011;919;48.274;12.292;2024-03-08T08:11:08;37.70;;;18.57;;
1799;SDS011;919;48.274;12.292;2024-03-08T08:13:36;36.43;;;19.80;;
1799;SDS011;919;48.274;12.292;2024-03-08T08:16:04;38.80;;;20.27;;
1799;SDS011;919;48.274;12.292;2024-03-08T08:18:33;33.63;;;19.53;;
1799;SDS011;919;48.274;12.292;2024-03-08T08:21:01;37.77;;;19.43;;
1799;SDS011;919;48.274;12.292;2024-03-08T08:23:27;35.53;;;18.70;;
1799;SDS011;919;48.274;12.292;2024-03-08T08:25:54;38.30;;;19.33;;
1799;SDS011;919;48.274;12.292;2024-03-08T08:28:21;36.60;;;16.70;;
1799;SDS011;919;48.274;12.292;2024-03-08T08:30:49;32.50;;;18.90;;
1799;SDS011;919;48.274;12.292;2024-03-08T08:33:17;33.47;;;19.27;;
1799;SDS011;919;48.274;12.292;2024-03-08T08:35:46;38.57;;;20.10;;
1799;SDS011;919;48.274;12.292;2024-03-08T08:38:15;35.90;;;19.67;;
1799;SDS011;919;48.274;12.292;2024-03-08T08:40:43;32.97;;;18.47;;
1799;SDS011;919;48.274;12.292;2024-03-08T08:43:10;32.97;;;18.33;;
1799;SDS011;919;48.274;12.292;2024-03-08T08:45:37;27.53;;;15.97;;
1799;SDS011;919;48.274;12.292;2024-03-08T08:48:04;35.27;;;18.53;;
1799;SDS011;919;48.274;12.292;2024-03-08T08:50:35;30.23;;;17.53;;
1799;SDS011;919;48.274;12.292;2024-03-08T08:53:04;27.23;;;16.63;;
1799;SDS011;919;48.274;12.292;2024-03-08T08:55:33;30.33;;;17.43;;
1799;SDS011;919;48.274;12.292;2024-03-08T08:58:01;33.10;;;17.83;;
1799;SDS011;919;48.274;12.292;2024-03-08T09:00:28;30.73;;;17.07;;
1799;SDS011;919;48.274;12.292;2024-03-08T09:02:56;34.90;;;18.53;;
1799;SDS011;919;48.274;12.292;2024-03-08T09:05:24;29.80;;;16.30;;
1799;SDS011;919;48.274;12.292;2024-03-08T09:07:51;32.83;;;15.97;;
1799;SDS011;919;48.274;12.292;2024-03-08T09:10:20;27.30;;;16.80;;
1799;SDS011;919;48.274;12.292;2024-03-08T09:12:48;36.33;;;19.30;;
1799;SDS011;919;48.274;12.292;2024-03-08T09:15:15;26.47;;;16.97;;
1799;SDS011;919;48.274;12.292;2024-03-08T09:17:46;26.53;;;16.10;;
1799;SDS011;919;48.274;12.292;2024-03-08T09:20:13;26.97;;;16.17;;
1799;SDS011;919;48.274;12.292;2024-03-08T09:22:40;26.50;;;16.63;;
1799;SDS011;919;48.274;12.292;2024-03-08T09:25:10;24.20;;;14.50;;
1799;SDS011;919;48.274;12.292;2024-03-08T09:27:39;29.33;;;16.47;;
1799;SDS011;919;48.274;12.292;2024-03-08T09:30:06;29.37;;;17.63;;
1799;SDS011;919;48.274;12.292;2024-03-08T09:32:36;25.70;;;15.10;;
1799;SDS011;919;48.274;12.292;2024-03-08T09:35:04;27.17;;;15.90;;
1799;SDS011;919;48.274;12.292;2024-03-08T09:37:32;24.23;;;14.27;;
1799;SDS011;919;48.274;12.292;2024-03-08T09:40:00;25.27;;;15.53;;
1799;SDS011;919;48.274;12.292;2024-03-08T09:42:30;27.50;;;16.90;;
1799;SDS011;919;48.274;12.292;2024-03-08T09:44:59;23.53;;;14.70;;
1799;SDS011;919;48.274;12.292;2024-03-08T09:47:26;24.40;;;15.10;;
1799;SDS011;919;48.274;12.292;2024-03-08T09:49:58;23.83;;;14.10;;
1799;SDS011;919;48.274;12.292;2024-03-08T09:52:26;26.77;;;15.47;;
1799;SDS011;919;48.274;12.292;2024-03-08T09:54:56;27.37;;;16.50;;
1799;SDS011;919;48.274;12.292;2024-03-08T09:57:24;26.43;;;15.73;;
1799;SDS011;919;48.274;12.292;2024-03-08T09:59:52;23.10;;;14.03;;
1799;SDS011;919;48.274;12.292;2024-03-08T10:02:22;23.20;;;14.83;;
1799;SDS011;919;48.274;12.292;2024-03-08T10:04:50;26.33;;;14.60;;
1799;SDS011;919;48.274;12.292;2024-03-08T10:07:21;28.27;;;15.30;;
1799;SDS011;919;48.274;12.292;2024-03-08T10:09:51;23.70;;;15.37;;
1799;SDS011;919;48.274;12.292;2024-03-08T10:12:18;25.10;;;16.30;;
1799;SDS011;919;48.274;12.292;2024-03-08T10:14:46;23.27;;;13.93;;
1799;SDS011;919;48.274;12.292;2024-03-08T10:17:14;22.10;;;14.20;;
1799;SDS011;919;48.274;12.292;2024-03-08T10:19:50;24.60;;;15.97;;
1799;SDS011;919;48.274;12.292;2024-03-08T10:22:18;29.50;;;16.23;;
1799;SDS011;919;48.274;12.292;2024-03-08T10:24:45;26.57;;;16.60;;
1799;SDS011;919;48.274;12.292;2024-03-08T10:27:14;25.40;;;15.07;;
1799;SDS011;919;48.274;12.292;2024-03-08T10:29:43;20.53;;;14.37;;
1799;SDS011;919;48.274;12.292;2024-03-08T10:32:13;20.40;;;14.10;;
1799;SDS011;919;48.274;12.292;2024-03-08T10:34:40;23.43;;;14.20;;
1799;SDS011;919;48.274;12.292;2024-03-08T10:37:11;23.40;;;14.00;;
1799;SDS011;919;48.274;12.292;2024-03-08T10:39:42;21.40;;;14.50;;
1799;SDS011;919;48.274;12.292;2024-03-08T10:42:18;23.47;;;14.97;;
1799;SDS011;919;48.274;12.292;2024-03-08T10:44:53;22.10;;;13.47;;
1799;SDS011;919;48.274;12.292;2024-03-08T10:47:29;18.30;;;12.10;;
1799;SDS011;919;48.274;12.292;2024-03-08T10:50:01;17.43;;;12.80;;
1799;SDS011;919;48.274;12.292;2024-03-08T10:52:37;21.77;;;13.33;;
1799;SDS011;919;48.274;12.292;2024-03-08T10:55:05;17.20;;;11.80;;
1799;SDS011;919;48.274;12.292;2024-03-08T10:57:43;17.57;;;12.87;;
1799;SDS011;919;48.274;12.292;2024-03-08T11:00:10;18.50;;;13.03;;
1799;SDS011;919;48.274;12.292;2024-03-08T11:02:43;17.73;;;12.40;;
1799;SDS011;919;48.274;12.292;2024-03-08T11:05:10;18.93;;;12.03;;
1799;SDS011;919;48.274;12.292;2024-03-08T11:07:43;18.07;;;12.53;;
1799;SDS011;919;48.274;12.292;2024-03-08T11:10:18;20.20;;;12.30;;
1799;SDS011;919;48.274;12.292;2024-03-08T11:12:47;18.30;;;11.97;;
1799;SDS011;919;48.274;12.292;2024-03-08T11:15:14;18.20;;;11.80;;
1799;SDS011;919;48.274;12.292;2024-03-08T11:17:47;14.37;;;10.23;;
1799;SDS011;919;48.274;12.292;2024-03-08T11:20:15;16.50;;;11.67;;
1799;SDS011;919;48.274;12.292;2024-03-08T11:22:50;17.47;;;12.87;;
1799;SDS011;919;48.274;12.292;2024-03-08T11:25:32;17.93;;;10.47;;
1799;SDS011;919;48.274;12.292;2024-03-08T11:28:08;21.27;;;10.40;;
1799;SDS011;919;48.274;12.292;2024-03-08T11:30:42;13.60;;;9.80;;
1799;SDS011;919;48.274;12.292;2024-03-08T11:33:11;16.50;;;10.47;;
1799;SDS011;919;48.274;12.292;2024-03-08T11:35:39;15.67;;;9.77;;
1799;SDS011;919;48.274;12.292;2024-03-08T11:38:14;15.77;;;10.53;;
1799;SDS011;919;48.274;12.292;2024-03-08T11:40:42;14.53;;;10.17;;
1799;SDS011;919;48.274;12.292;2024-03-08T11:43:09;10.87;;;8.53;;
1799;SDS011;919;48.274;12.292;2024-03-08T11:45:36;13.23;;;10.23;;
1799;SDS011;919;48.274;12.292;2024-03-08T11:48:07;14.17;;;10.77;;
1799;SDS011;919;48.274;12.292;2024-03-08T11:50:37;17.20;;;10.60;;
1799;SDS011;919;48.274;12.292;2024-03-08T11:53:05;15.30;;;11.17;;
1799;SDS011;919;48.274;12.292;2024-03-08T11:55:35;15.57;;;11.70;;
1799;SDS011;919;48.274;12.292;2024-03-08T11:58:03;17.43;;;11.80;;
1799;SDS011;919;48.274;12.292;2024-03-08T12:00:33;14.97;;;10.60;;
1799;SDS011;919;48.274;12.292;2024-03-08T12:03:05;15.03;;;10.87;;
1799;SDS011;919;48.274;12.292;2024-03-08T12:05:35;16.33;;;12.67;;
1799;SDS011;919;48.274;12.292;2024-03-08T12:08:03;21.83;;;12.60;;
1799;SDS011;919;48.274;12.292;2024-03-08T12:10:32;15.10;;;10.97;;
1799;SDS011;919;48.274;12.292;2024-03-08T12:13:01;16.13;;;11.80;;
1799;SDS011;919;48.274;12.292;2024-03-08T12:15:29;17.70;;;13.30;;
1799;SDS011;919;48.274;12.292;2024-03-08T12:17:58;16.53;;;11.17;;
1799;SDS011;919;48.274;12.292;2024-03-08T12:20:27;16.90;;;12.07;;
1799;SDS011;919;48.274;12.292;2024-03-08T12:22:56;15.03;;;10.93;;
1799;SDS011;919;48.274;12.292;2024-03-08T12:25:25;14.70;;;11.50;;
1799;SDS011;919;48.274;12.292;2024-03-08T12:27:54;14.50;;;11.40;;
1799;SDS011;919;48.274;12.292;2024-03-08T12:30:23;13.10;;;9.40;;
1799;SDS011;919;48.274;12.292;2024-03-08T12:32:53;14.63;;;10.33;;
1799;SDS011;919;48.274;12.292;2024-03-08T12:35:23;16.57;;;11.87;;
1799;SDS011;919;48.274;12.292;2024-03-08T12:37:52;15.13;;;11.70;;
1799;SDS011;919;48.274;12.292;2024-03-08T12:40:25;17.20;;;12.23;;
1799;SDS011;919;48.274;12.292;2024-03-08T12:42:55;15.13;;;11.83;;
1799;SDS011;919;48.274;12.292;2024-03-08T12:45:22;13.30;;;9.77;;
1799;SDS011;919;48.274;12.292;2024-03-08T12:47:52;11.47;;;10.07;;
1799;SDS011;919;48.274;12.292;2024-03-08T12:50:20;16.47;;;10.80;;
1799;SDS011;919;48.274;12.292;2024-03-08T12:52:48;14.40;;;10.90;;
1799;SDS011;919;48.274;12.292;2024-03-08T12:55:15;18.40;;;12.00;;
1799;SDS011;919;48.274;12.292;2024-03-08T12:57:43;13.10;;;10.87;;
1799;SDS011;919;48.274;12.292;2024-03-08T13:00:14;19.20;;;12.17;;
1799;SDS011;919;48.274;12.292;2024-03-08T13:02:45;15.00;;;10.23;;
1799;SDS011;919;48.274;12.292;2024-03-08T13:05:12;12.67;;;10.80;;
1799;SDS011;919;48.274;12.292;2024-03-08T13:07:40;14.60;;;10.60;;
1799;SDS011;919;48.274;12.292;2024-03-08T13:10:11;17.10;;;11.00;;
1799;SDS011;919;48.274;12.292;2024-03-08T13:12:40;14.87;;;11.10;;
1799;SDS011;919;48.274;12.292;2024-03-08T13:15:08;17.20;;;12.70;;
1799;SDS011;919;48.274;12.292;2024-03-08T13:17:38;16.30;;;12.17;;
1799;SDS011;919;48.274;12.292;2024-03-08T13:20:07;15.73;;;11.47;;
1799;SDS011;919;48.274;12.292;2024-03-08T13:22:41;15.93;;;11.43;;
1799;SDS011;919;48.274;12.292;2024-03-08T13:25:08;15.10;;;11.57;;
1799;SDS011;919;48.274;12.292;2024-03-08T13:27:40;18.20;;;11.63;;
1799;SDS011;919;48.274;12.292;2024-03-08T13:30:08;17.20;;;12.30;;
1799;SDS011;919;48.274;12.292;2024-03-08T13:32:40;14.73;;;10.93;;
1799;SDS011;919;48.274;12.292;2024-03-08T13:35:08;13.87;;;11.03;;
1799;SDS011;919;48.274;12.292;2024-03-08T13:37:38;15.27;;;11.93;;
1799;SDS011;919;48.274;12.292;2024-03-08T13:40:06;18.23;;;11.67;;
1799;SDS011;919;48.274;12.292;2024-03-08T13:42:39;17.00;;;12.17;;
1799;SDS011;919;48.274;12.292;2024-03-08T13:45:06;17.83;;;11.77;;
1799;SDS011;919;48.274;12.292;2024-03-08T13:47:35;16.67;;;11.67;;
1799;SDS011;919;48.274;12.292;2024-03-08T13:50:06;15.97;;;12.00;;
1799;SDS011;919;48.274;12.292;2024-03-08T13:52:37;18.13;;;12.77;;
1799;SDS011;919;48.274;12.292;2024-03-08T13:55:05;19.50;;;11.20;;
1799;SDS011;919;48.274;12.292;2024-03-08T13:57:32;19.37;;;12.33;;
1799;SDS011;919;48.274;12.292;2024-03-08T13:59:59;19.70;;;12.63;;
1799;SDS011;919;48.274;12.292;2024-03-08T14:02:27;15.03;;;11.80;;
1799;SDS011;919;48.274;12.292;2024-03-08T14:04:56;15.20;;;11.87;;
1799;SDS011;919;48.274;12.292;2024-03-08T14:07:28;15.70;;;11.23;;
1799;SDS011;919;48.274;12.292;2024-03-08T14:09:56;14.40;;;11.50;;
1799;SDS011;919;48.274;12.292;2024-03-08T14:12:24;16.00;;;11.10;;
1799;SDS011;919;48.274;12.292;2024-03-08T14:14:53;16.83;;;11.13;;
1799;SDS011;919;48.274;12.292;2024-03-08T14:17:21;18.30;;;13.03;;
1799;SDS011;919;48.274;12.292;2024-03-08T14:19:50;18.93;;;12.37;;
1799;SDS011;919;48.274;12.292;2024-03-08T14:22:17;17.30;;;11.80;;
1799;SDS011;919;48.274;12.292;2024-03-08T14:24:46;17.43;;;11.17;;
1799;SDS011;919;48.274;12.292;2024-03-08T14:27:14;17.50;;;11.40;;
1799;SDS011;919;48.274;12.292;2024-03-08T14:29:44;18.30;;;12.13;;
1799;SDS011;919;48.274;12.292;2024-03-08T14:32:11;18.53;;;12.47;;
1799;SDS011;919;48.274;12.292;2024-03-08T14:34:39;15.93;;;11.83;;
1799;SDS011;919;48.274;12.292;2024-03-08T14:37:09;17.40;;;11.80;;
1799;SDS011;919;48.274;12.292;2024-03-08T14:39:37;19.60;;;13.33;;
1799;SDS011;919;48.274;12.292;2024-03-08T14:42:05;15.10;;;10.07;;
1799;SDS011;919;48.274;12.292;2024-03-08T14:44:33;14.13;;;10.53;;
1799;SDS011;919;48.274;12.292;2024-03-08T14:47:01;14.83;;;9.80;;
1799;SDS011;919;48.274;12.292;2024-03-08T14:49:31;13.73;;;9.77;;
1799;SDS011;919;48.274;12.292;2024-03-08T14:52:01;18.07;;;12.10;;
1799;SDS011;919;48.274;12.292;2024-03-08T14:54:39;18.37;;;10.87;;